sensor_id;sensor_type;location;lat;lon;timestamp;temperature;humidity
67529;DHT22;54366;51.980;5.856;2023-06-14T00:01:47;21.40;35.70
67529;DHT22;54366;51.980;5.856;2023-06-14T00:04:21;21.40;35.70
67529;DHT22;54366;51.980;5.856;2023-06-14T00:06:55;21.40;35.70
67529;DHT22;54366;51.980;5.856;2023-06-14T00:09:29;21.30;36.00
67529;DHT22;54366;51.980;5.856;2023-06-14T00:12:02;21.20;35.90
67529;DHT22;54366;51.980;5.856;2023-06-14T00:14:29;21.20;36.10
67529;DHT22;54366;51.980;5.856;2023-06-14T00:17:01;21.10;36.20
67529;DHT22;54366;51.980;5.856;2023-06-14T00:19:35;21.10;36.30
67529;DHT22;54366;51.980;5.856;2023-06-14T00:22:02;21.20;36.40
67529;DHT22;54366;51.980;5.856;2023-06-14T00:24:35;21.10;36.40
67529;DHT22;54366;51.980;5.856;2023-06-14T00:27:08;21.10;36.50
67529;DHT22;54366;51.980;5.856;2023-06-14T00:29:41;21.10;37.00
67529;DHT22;54366;51.980;5.856;2023-06-14T00:32:14;21.10;36.80
67529;DHT22;54366;51.980;5.856;2023-06-14T00:34:47;21.00;37.00
67529;DHT22;54366;51.980;5.856;2023-06-14T00:37:13;21.00;37.10
67529;DHT22;54366;51.980;5.856;2023-06-14T00:39:46;21.00;37.10
67529;DHT22;54366;51.980;5.856;2023-06-14T00:42:27;20.90;37.00
67529;DHT22;54366;51.980;5.856;2023-06-14T00:45:00;20.90;37.40
67529;DHT22;54366;51.980;5.856;2023-06-14T00:47:27;20.90;37.30
67529;DHT22;54366;51.980;5.856;2023-06-14T00:50:00;20.80;37.40
67529;DHT22;54366;51.980;5.856;2023-06-14T00:52:34;20.80;37.50
67529;DHT22;54366;51.980;5.856;2023-06-14T00:55:08;20.80;37.60
67529;DHT22;54366;51.980;5.856;2023-06-14T00:57:41;20.80;37.50
67529;DHT22;54366;51.980;5.856;2023-06-14T01:00:14;20.70;37.50
67529;DHT22;54366;51.980;5.856;2023-06-14T01:02:47;20.70;37.80
67529;DHT22;54366;51.980;5.856;2023-06-14T01:05:21;20.70;37.90
67529;DHT22;54366;51.980;5.856;2023-06-14T01:08:18;20.70;37.90
67529;DHT22;54366;51.980;5.856;2023-06-14T01:11:11;20.70;38.10
67529;DHT22;54366;51.980;5.856;2023-06-14T01:13:46;20.60;38.10
67529;DHT22;54366;51.980;5.856;2023-06-14T01:16:14;20.60;38.60
67529;DHT22;54366;51.980;5.856;2023-06-14T01:18:47;20.60;38.30
67529;DHT22;54366;51.980;5.856;2023-06-14T01:21:24;20.50;38.30
67529;DHT22;54366;51.980;5.856;2023-06-14T01:23:57;20.50;38.30
67529;DHT22;54366;51.980;5.856;2023-06-14T01:26:31;20.50;38.40
67529;DHT22;54366;51.980;5.856;2023-06-14T01:28:59;20.50;38.30
67529;DHT22;54366;51.980;5.856;2023-06-14T01:31:32;20.50;38.30
67529;DHT22;54366;51.980;5.856;2023-06-14T01:34:13;20.50;38.40
67529;DHT22;54366;51.980;5.856;2023-06-14T01:36:52;20.40;38.30
67529;DHT22;54366;51.980;5.856;2023-06-14T01:39:34;20.40;38.50
67529;DHT22;54366;51.980;5.856;2023-06-14T01:42:14;20.40;38.70
67529;DHT22;54366;51.980;5.856;2023-06-14T01:44:49;20.40;38.70
67529;DHT22;54366;51.980;5.856;2023-06-14T01:47:23;20.40;38.70
67529;DHT22;54366;51.980;5.856;2023-06-14T01:49:56;20.40;38.80
67529;DHT22;54366;51.980;5.856;2023-06-14T01:52:22;20.40;38.80
67529;DHT22;54366;51.980;5.856;2023-06-14T01:54:56;20.30;38.80
67529;DHT22;54366;51.980;5.856;2023-06-14T01:57:30;20.30;38.90
67529;DHT22;54366;51.980;5.856;2023-06-14T02:00:04;20.30;39.10
67529;DHT22;54366;51.980;5.856;2023-06-14T02:02:40;20.30;38.90
67529;DHT22;54366;51.980;5.856;2023-06-14T02:05:13;20.30;39.00
67529;DHT22;54366;51.980;5.856;2023-06-14T02:07:46;20.20;38.90
67529;DHT22;54366;51.980;5.856;2023-06-14T02:10:19;20.20;39.10
67529;DHT22;54366;51.980;5.856;2023-06-14T02:12:47;20.20;39.20
67529;DHT22;54366;51.980;5.856;2023-06-14T02:15:20;20.20;39.20
67529;DHT22;54366;51.980;5.856;2023-06-14T02:17:48;20.20;39.30
67529;DHT22;54366;51.980;5.856;2023-06-14T02:20:21;20.10;39.20
67529;DHT22;54366;51.980;5.856;2023-06-14T02:22:48;20.10;39.30
67529;DHT22;54366;51.980;5.856;2023-06-14T02:25:20;20.10;39.40
67529;DHT22;54366;51.980;5.856;2023-06-14T02:27:54;20.10;39.50
67529;DHT22;54366;51.980;5.856;2023-06-14T02:30:28;20.10;39.60
67529;DHT22;54366;51.980;5.856;2023-06-14T02:32:56;20.00;39.80
67529;DHT22;54366;51.980;5.856;2023-06-14T02:35:30;20.00;40.00
67529;DHT22;54366;51.980;5.856;2023-06-14T02:38:09;20.00;39.90
67529;DHT22;54366;51.980;5.856;2023-06-14T02:40:42;20.00;40.00
67529;DHT22;54366;51.980;5.856;2023-06-14T02:43:22;19.90;40.10
67529;DHT22;54366;51.980;5.856;2023-06-14T02:45:48;19.90;40.40
67529;DHT22;54366;51.980;5.856;2023-06-14T02:48:21;19.90;40.10
67529;DHT22;54366;51.980;5.856;2023-06-14T02:50:54;19.80;40.00
67529;DHT22;54366;51.980;5.856;2023-06-14T02:53:28;19.80;40.10
67529;DHT22;54366;51.980;5.856;2023-06-14T02:56:01;19.80;40.20
67529;DHT22;54366;51.980;5.856;2023-06-14T02:58:30;19.80;40.20
67529;DHT22;54366;51.980;5.856;2023-06-14T03:01:02;19.80;40.10
67529;DHT22;54366;51.980;5.856;2023-06-14T03:03:35;19.70;40.40
67529;DHT22;54366;51.980;5.856;2023-06-14T03:06:08;19.70;40.40
67529;DHT22;54366;51.980;5.856;2023-06-14T03:08:44;19.80;40.60
67529;DHT22;54366;51.980;5.856;2023-06-14T03:11:14;19.60;40.60
67529;DHT22;54366;51.980;5.856;2023-06-14T03:13:48;19.70;40.90
67529;DHT22;54366;51.980;5.856;2023-06-14T03:16:21;19.60;41.00
67529;DHT22;54366;51.980;5.856;2023-06-14T03:18:54;19.60;41.00
67529;DHT22;54366;51.980;5.856;2023-06-14T03:21:31;19.60;41.30
67529;DHT22;54366;51.980;5.856;2023-06-14T03:24:04;19.60;41.20
67529;DHT22;54366;51.980;5.856;2023-06-14T03:26:31;19.50;41.50
67529;DHT22;54366;51.980;5.856;2023-06-14T03:29:03;19.50;41.60
67529;DHT22;54366;51.980;5.856;2023-06-14T03:31:59;19.50;41.70
67529;DHT22;54366;51.980;5.856;2023-06-14T03:34:36;19.50;41.70
67529;DHT22;54366;51.980;5.856;2023-06-14T03:37:16;19.50;41.70
67529;DHT22;54366;51.980;5.856;2023-06-14T03:39:55;19.50;41.90
67529;DHT22;54366;51.980;5.856;2023-06-14T03:42:31;19.40;41.90
67529;DHT22;54366;51.980;5.856;2023-06-14T03:45:06;19.40;41.70
67529;DHT22;54366;51.980;5.856;2023-06-14T03:47:33;19.40;41.60
67529;DHT22;54366;51.980;5.856;2023-06-14T03:50:07;19.40;41.90
67529;DHT22;54366;51.980;5.856;2023-06-14T03:52:34;19.30;42.20
67529;DHT22;54366;51.980;5.856;2023-06-14T03:55:07;19.30;42.30
67529;DHT22;54366;51.980;5.856;2023-06-14T03:57:34;19.30;42.20
67529;DHT22;54366;51.980;5.856;2023-06-14T04:00:11;19.30;42.40
67529;DHT22;54366;51.980;5.856;2023-06-14T04:02:45;19.30;42.40
67529;DHT22;54366;51.980;5.856;2023-06-14T04:05:18;19.20;42.50
67529;DHT22;54366;51.980;5.856;2023-06-14T04:07:49;19.30;42.60
67529;DHT22;54366;51.980;5.856;2023-06-14T04:10:23;19.30;42.50
67529;DHT22;54366;51.980;5.856;2023-06-14T04:12:49;19.20;42.70
67529;DHT22;54366;51.980;5.856;2023-06-14T04:15:23;19.20;42.70
67529;DHT22;54366;51.980;5.856;2023-06-14T04:17:58;19.20;42.90
67529;DHT22;54366;51.980;5.856;2023-06-14T04:20:30;19.20;42.90
67529;DHT22;54366;51.980;5.856;2023-06-14T04:23:12;19.20;43.10
67529;DHT22;54366;51.980;5.856;2023-06-14T04:25:46;19.20;43.10
67529;DHT22;54366;51.980;5.856;2023-06-14T04:28:13;19.10;43.50
67529;DHT22;54366;51.980;5.856;2023-06-14T04:30:50;19.10;43.40
67529;DHT22;54366;51.980;5.856;2023-06-14T04:33:23;19.10;43.50
67529;DHT22;54366;51.980;5.856;2023-06-14T04:35:57;19.10;43.90
67529;DHT22;54366;51.980;5.856;2023-06-14T04:38:32;19.00;43.60
67529;DHT22;54366;51.980;5.856;2023-06-14T04:41:08;19.10;43.80
67529;DHT22;54366;51.980;5.856;2023-06-14T04:43:38;19.10;43.70
67529;DHT22;54366;51.980;5.856;2023-06-14T04:46:11;19.00;43.90
67529;DHT22;54366;51.980;5.856;2023-06-14T04:48:47;19.10;44.00
67529;DHT22;54366;51.980;5.856;2023-06-14T04:51:22;19.10;44.10
67529;DHT22;54366;51.980;5.856;2023-06-14T04:54:01;19.00;44.10
67529;DHT22;54366;51.980;5.856;2023-06-14T04:56:36;19.00;44.10
67529;DHT22;54366;51.980;5.856;2023-06-14T04:59:12;19.00;44.40
67529;DHT22;54366;51.980;5.856;2023-06-14T05:01:39;19.00;44.50
67529;DHT22;54366;51.980;5.856;2023-06-14T05:04:11;19.10;44.30
67529;DHT22;54366;51.980;5.856;2023-06-14T05:06:45;19.10;44.50
67529;DHT22;54366;51.980;5.856;2023-06-14T05:09:18;19.10;44.40
67529;DHT22;54366;51.980;5.856;2023-06-14T05:11:51;19.10;44.20
67529;DHT22;54366;51.980;5.856;2023-06-14T05:14:25;19.10;44.40
67529;DHT22;54366;51.980;5.856;2023-06-14T05:16:52;19.10;44.40
67529;DHT22;54366;51.980;5.856;2023-06-14T05:19:25;19.20;44.60
67529;DHT22;54366;51.980;5.856;2023-06-14T05:21:59;19.20;44.50
67529;DHT22;54366;51.980;5.856;2023-06-14T05:24:32;19.20;44.50
67529;DHT22;54366;51.980;5.856;2023-06-14T05:27:05;19.20;44.40
67529;DHT22;54366;51.980;5.856;2023-06-14T05:29:38;19.30;44.20
67529;DHT22;54366;51.980;5.856;2023-06-14T05:32:05;19.30;44.30
67529;DHT22;54366;51.980;5.856;2023-06-14T05:34:38;19.40;44.30
67529;DHT22;54366;51.980;5.856;2023-06-14T05:37:11;19.40;44.30
67529;DHT22;54366;51.980;5.856;2023-06-14T05:39:39;19.40;44.20
67529;DHT22;54366;51.980;5.856;2023-06-14T05:42:11;19.50;44.10
67529;DHT22;54366;51.980;5.856;2023-06-14T05:44:51;19.50;44.00
67529;DHT22;54366;51.980;5.856;2023-06-14T05:47:24;19.60;44.00
67529;DHT22;54366;51.980;5.856;2023-06-14T05:49:51;19.70;44.00
67529;DHT22;54366;51.980;5.856;2023-06-14T05:52:24;19.60;44.00
67529;DHT22;54366;51.980;5.856;2023-06-14T05:54:57;19.70;43.90
67529;DHT22;54366;51.980;5.856;2023-06-14T05:57:30;19.80;43.80
67529;DHT22;54366;51.980;5.856;2023-06-14T06:00:04;19.80;43.80
67529;DHT22;54366;51.980;5.856;2023-06-14T06:02:47;19.90;43.60
67529;DHT22;54366;51.980;5.856;2023-06-14T06:05:14;20.00;43.60
67529;DHT22;54366;51.980;5.856;2023-06-14T06:07:47;20.10;43.80
67529;DHT22;54366;51.980;5.856;2023-06-14T06:10:20;20.10;43.50
67529;DHT22;54366;51.980;5.856;2023-06-14T06:12:53;20.20;43.20
67529;DHT22;54366;51.980;5.856;2023-06-14T06:15:20;20.30;43.30
67529;DHT22;54366;51.980;5.856;2023-06-14T06:17:53;20.40;43.60
67529;DHT22;54366;51.980;5.856;2023-06-14T06:20:20;20.50;43.20
67529;DHT22;54366;51.980;5.856;2023-06-14T06:22:53;20.60;43.00
67529;DHT22;54366;51.980;5.856;2023-06-14T06:25:27;20.70;42.80
67529;DHT22;54366;51.980;5.856;2023-06-14T06:27:59;20.70;42.70
67529;DHT22;54366;51.980;5.856;2023-06-14T06:30:32;20.80;42.60
67529;DHT22;54366;51.980;5.856;2023-06-14T06:32:58;20.90;43.10
67529;DHT22;54366;51.980;5.856;2023-06-14T06:35:31;21.00;42.40
67529;DHT22;54366;51.980;5.856;2023-06-14T06:37:59;21.10;42.40
67529;DHT22;54366;51.980;5.856;2023-06-14T06:40:39;21.20;42.20
67529;DHT22;54366;51.980;5.856;2023-06-14T06:43:11;21.30;42.70
67529;DHT22;54366;51.980;5.856;2023-06-14T06:45:49;21.50;42.00
67529;DHT22;54366;51.980;5.856;2023-06-14T06:48:16;21.50;41.60
67529;DHT22;54366;51.980;5.856;2023-06-14T06:50:49;21.60;41.50
67529;DHT22;54366;51.980;5.856;2023-06-14T06:53:22;21.70;41.20
67529;DHT22;54366;51.980;5.856;2023-06-14T06:55:55;21.80;40.90
67529;DHT22;54366;51.980;5.856;2023-06-14T06:58:28;21.90;40.70
67529;DHT22;54366;51.980;5.856;2023-06-14T07:01:01;22.10;40.30
67529;DHT22;54366;51.980;5.856;2023-06-14T07:03:27;22.10;40.00
67529;DHT22;54366;51.980;5.856;2023-06-14T07:06:00;22.30;39.90
67529;DHT22;54366;51.980;5.856;2023-06-14T07:08:26;22.30;39.40
67529;DHT22;54366;51.980;5.856;2023-06-14T07:10:59;22.40;39.40
67529;DHT22;54366;51.980;5.856;2023-06-14T07:13:32;22.40;39.20
67529;DHT22;54366;51.980;5.856;2023-06-14T07:15:59;22.50;39.40
67529;DHT22;54366;51.980;5.856;2023-06-14T07:18:35;22.60;39.00
67529;DHT22;54366;51.980;5.856;2023-06-14T07:21:09;22.70;38.70
67529;DHT22;54366;51.980;5.856;2023-06-14T07:23:42;22.80;38.40
67529;DHT22;54366;51.980;5.856;2023-06-14T07:26:15;22.90;38.40
67529;DHT22;54366;51.980;5.856;2023-06-14T07:28:42;23.00;38.10
67529;DHT22;54366;51.980;5.856;2023-06-14T07:31:17;23.10;38.20
67529;DHT22;54366;51.980;5.856;2023-06-14T07:33:45;23.20;38.30
67529;DHT22;54366;51.980;5.856;2023-06-14T07:36:18;23.30;37.80
67529;DHT22;54366;51.980;5.856;2023-06-14T07:38:51;23.40;37.60
67529;DHT22;54366;51.980;5.856;2023-06-14T07:41:38;23.50;37.40
67529;DHT22;54366;51.980;5.856;2023-06-14T07:44:10;23.60;37.10
67529;DHT22;54366;51.980;5.856;2023-06-14T07:46:38;23.70;37.20
67529;DHT22;54366;51.980;5.856;2023-06-14T07:49:10;23.90;37.30
67529;DHT22;54366;51.980;5.856;2023-06-14T07:51:43;24.00;36.80
67529;DHT22;54366;51.980;5.856;2023-06-14T07:54:17;24.10;35.80
67529;DHT22;54366;51.980;5.856;2023-06-14T07:56:50;24.20;35.60
67529;DHT22;54366;51.980;5.856;2023-06-14T07:59:23;24.30;34.80
67529;DHT22;54366;51.980;5.856;2023-06-14T08:01:56;24.40;34.30
67529;DHT22;54366;51.980;5.856;2023-06-14T08:04:22;24.50;34.40
67529;DHT22;54366;51.980;5.856;2023-06-14T08:06:57;24.60;34.20
67529;DHT22;54366;51.980;5.856;2023-06-14T08:09:30;24.70;33.90
67529;DHT22;54366;51.980;5.856;2023-06-14T08:12:05;24.70;33.50
67529;DHT22;54366;51.980;5.856;2023-06-14T08:14:42;24.80;32.60
67529;DHT22;54366;51.980;5.856;2023-06-14T08:17:15;24.90;32.90
67529;DHT22;54366;51.980;5.856;2023-06-14T08:19:41;25.00;32.70
67529;DHT22;54366;51.980;5.856;2023-06-14T08:22:14;25.10;32.90
67529;DHT22;54366;51.980;5.856;2023-06-14T08:24:41;25.20;33.20
67529;DHT22;54366;51.980;5.856;2023-06-14T08:27:14;25.40;32.80
67529;DHT22;54366;51.980;5.856;2023-06-14T08:29:41;25.50;32.20
67529;DHT22;54366;51.980;5.856;2023-06-14T08:32:14;25.60;31.60
67529;DHT22;54366;51.980;5.856;2023-06-14T08:34:41;25.70;31.80
67529;DHT22;54366;51.980;5.856;2023-06-14T08:37:13;25.80;31.10
67529;DHT22;54366;51.980;5.856;2023-06-14T08:39:46;25.80;31.00
67529;DHT22;54366;51.980;5.856;2023-06-14T08:42:26;26.00;31.90
67529;DHT22;54366;51.980;5.856;2023-06-14T08:44:59;26.10;30.30
67529;DHT22;54366;51.980;5.856;2023-06-14T08:47:26;26.20;30.40
67529;DHT22;54366;51.980;5.856;2023-06-14T08:50:01;26.30;30.50
67529;DHT22;54366;51.980;5.856;2023-06-14T08:52:38;26.30;30.60
67529;DHT22;54366;51.980;5.856;2023-06-14T08:55:17;26.40;31.00
67529;DHT22;54366;51.980;5.856;2023-06-14T08:57:51;26.60;31.20
67529;DHT22;54366;51.980;5.856;2023-06-14T09:00:24;26.80;30.90
67529;DHT22;54366;51.980;5.856;2023-06-14T09:02:57;26.90;29.60
67529;DHT22;54366;51.980;5.856;2023-06-14T09:05:30;26.90;28.40
67529;DHT22;54366;51.980;5.856;2023-06-14T09:08:03;26.90;28.90
67529;DHT22;54366;51.980;5.856;2023-06-14T09:10:37;27.00;29.20
67529;DHT22;54366;51.980;5.856;2023-06-14T09:13:12;27.10;29.30
67529;DHT22;54366;51.980;5.856;2023-06-14T09:15:44;27.20;28.80
67529;DHT22;54366;51.980;5.856;2023-06-14T09:18:17;27.10;29.20
67529;DHT22;54366;51.980;5.856;2023-06-14T09:20:53;27.20;29.60
67529;DHT22;54366;51.980;5.856;2023-06-14T09:23:22;27.30;29.40
67529;DHT22;54366;51.980;5.856;2023-06-14T09:25:55;27.50;28.90
67529;DHT22;54366;51.980;5.856;2023-06-14T09:28:27;27.60;28.10
67529;DHT22;54366;51.980;5.856;2023-06-14T09:31:01;27.60;28.10
67529;DHT22;54366;51.980;5.856;2023-06-14T09:33:27;27.60;28.30
67529;DHT22;54366;51.980;5.856;2023-06-14T09:36:00;27.80;28.90
67529;DHT22;54366;51.980;5.856;2023-06-14T09:38:27;27.90;28.80
67529;DHT22;54366;51.980;5.856;2023-06-14T09:41:06;28.00;29.30
67529;DHT22;54366;51.980;5.856;2023-06-14T09:43:38;28.00;28.60
67529;DHT22;54366;51.980;5.856;2023-06-14T09:46:11;28.00;28.60
67529;DHT22;54366;51.980;5.856;2023-06-14T09:48:44;28.00;29.30
67529;DHT22;54366;51.980;5.856;2023-06-14T09:51:14;28.00;28.80
67529;DHT22;54366;51.980;5.856;2023-06-14T09:53:49;28.00;28.70
67529;DHT22;54366;51.980;5.856;2023-06-14T09:56:27;28.10;28.70
67529;DHT22;54366;51.980;5.856;2023-06-14T09:59:05;28.20;28.10
67529;DHT22;54366;51.980;5.856;2023-06-14T10:01:43;28.30;27.20
67529;DHT22;54366;51.980;5.856;2023-06-14T10:04:15;28.30;27.50
67529;DHT22;54366;51.980;5.856;2023-06-14T10:06:51;28.30;27.60
67529;DHT22;54366;51.980;5.856;2023-06-14T10:09:24;28.30;27.80
67529;DHT22;54366;51.980;5.856;2023-06-14T10:11:58;28.30;27.50
67529;DHT22;54366;51.980;5.856;2023-06-14T10:14:31;28.40;28.00
67529;DHT22;54366;51.980;5.856;2023-06-14T10:17:08;28.60;27.50
67529;DHT22;54366;51.980;5.856;2023-06-14T10:20:06;28.70;27.40
67529;DHT22;54366;51.980;5.856;2023-06-14T10:22:51;28.80;27.40
67529;DHT22;54366;51.980;5.856;2023-06-14T10:25:29;28.90;27.50
67529;DHT22;54366;51.980;5.856;2023-06-14T10:28:16;29.00;26.80
67529;DHT22;54366;51.980;5.856;2023-06-14T10:31:08;29.10;27.90
67529;DHT22;54366;51.980;5.856;2023-06-14T10:34:10;29.20;27.50
67529;DHT22;54366;51.980;5.856;2023-06-14T10:36:43;29.30;27.20
67529;DHT22;54366;51.980;5.856;2023-06-14T10:39:17;29.50;27.20
67529;DHT22;54366;51.980;5.856;2023-06-14T10:42:05;29.60;26.60
67529;DHT22;54366;51.980;5.856;2023-06-14T10:44:43;29.50;26.40
67529;DHT22;54366;51.980;5.856;2023-06-14T10:47:32;29.60;26.90
67529;DHT22;54366;51.980;5.856;2023-06-14T10:50:09;29.70;26.40
67529;DHT22;54366;51.980;5.856;2023-06-14T10:52:43;29.80;26.70
67529;DHT22;54366;51.980;5.856;2023-06-14T10:55:17;29.90;26.30
67529;DHT22;54366;51.980;5.856;2023-06-14T10:57:52;29.90;26.50
67529;DHT22;54366;51.980;5.856;2023-06-14T11:00:29;30.10;26.40
67529;DHT22;54366;51.980;5.856;2023-06-14T11:03:31;30.10;25.60
67529;DHT22;54366;51.980;5.856;2023-06-14T11:06:15;30.10;25.40
67529;DHT22;54366;51.980;5.856;2023-06-14T11:12:15;30.00;25.30
67529;DHT22;54366;51.980;5.856;2023-06-14T11:14:47;29.80;25.40
67529;DHT22;54366;51.980;5.856;2023-06-14T11:17:20;29.80;25.60
67529;DHT22;54366;51.980;5.856;2023-06-14T11:20:12;29.90;25.60
67529;DHT22;54366;51.980;5.856;2023-06-14T11:22:48;30.10;25.50
67529;DHT22;54366;51.980;5.856;2023-06-14T11:25:15;30.10;25.80
67529;DHT22;54366;51.980;5.856;2023-06-14T11:27:49;30.30;25.50
67529;DHT22;54366;51.980;5.856;2023-06-14T11:30:23;30.30;24.70
67529;DHT22;54366;51.980;5.856;2023-06-14T11:32:53;30.30;25.10
67529;DHT22;54366;51.980;5.856;2023-06-14T11:35:26;30.30;25.10
67529;DHT22;54366;51.980;5.856;2023-06-14T11:37:56;30.30;25.20
67529;DHT22;54366;51.980;5.856;2023-06-14T11:40:31;30.40;25.30
67529;DHT22;54366;51.980;5.856;2023-06-14T11:43:04;30.40;25.20
67529;DHT22;54366;51.980;5.856;2023-06-14T11:45:37;30.50;25.30
67529;DHT22;54366;51.980;5.856;2023-06-14T11:48:11;30.50;25.00
67529;DHT22;54366;51.980;5.856;2023-06-14T11:50:38;30.60;25.20
67529;DHT22;54366;51.980;5.856;2023-06-14T11:53:12;30.70;25.20
67529;DHT22;54366;51.980;5.856;2023-06-14T11:55:44;30.70;25.40
67529;DHT22;54366;51.980;5.856;2023-06-14T11:58:19;30.80;25.80
67529;DHT22;54366;51.980;5.856;2023-06-14T12:00:53;31.00;25.50
67529;DHT22;54366;51.980;5.856;2023-06-14T12:03:23;31.10;25.40
67529;DHT22;54366;51.980;5.856;2023-06-14T12:06:07;31.10;25.00
67529;DHT22;54366;51.980;5.856;2023-06-14T12:08:43;31.00;25.00
67529;DHT22;54366;51.980;5.856;2023-06-14T12:11:17;30.90;25.30
67529;DHT22;54366;51.980;5.856;2023-06-14T12:13:50;30.80;25.30
67529;DHT22;54366;51.980;5.856;2023-06-14T12:16:17;30.80;25.30
67529;DHT22;54366;51.980;5.856;2023-06-14T12:18:49;30.70;25.20
67529;DHT22;54366;51.980;5.856;2023-06-14T12:21:23;30.70;25.20
67529;DHT22;54366;51.980;5.856;2023-06-14T12:23:49;30.70;25.30
67529;DHT22;54366;51.980;5.856;2023-06-14T12:26:24;30.70;25.00
67529;DHT22;54366;51.980;5.856;2023-06-14T12:28:59;30.70;25.40
67529;DHT22;54366;51.980;5.856;2023-06-14T12:31:26;30.70;25.20
67529;DHT22;54366;51.980;5.856;2023-06-14T12:33:58;30.80;25.40
67529;DHT22;54366;51.980;5.856;2023-06-14T12:36:31;30.90;25.20
67529;DHT22;54366;51.980;5.856;2023-06-14T12:39:04;30.80;25.60
67529;DHT22;54366;51.980;5.856;2023-06-14T12:41:31;30.80;25.70
67529;DHT22;54366;51.980;5.856;2023-06-14T12:44:04;30.80;25.50
67529;DHT22;54366;51.980;5.856;2023-06-14T12:46:36;30.80;25.50
67529;DHT22;54366;51.980;5.856;2023-06-14T12:49:07;30.80;26.10
67529;DHT22;54366;51.980;5.856;2023-06-14T12:51:40;30.80;25.80
67529;DHT22;54366;51.980;5.856;2023-06-14T12:54:12;30.90;25.60
67529;DHT22;54366;51.980;5.856;2023-06-14T12:56:46;31.00;25.90
67529;DHT22;54366;51.980;5.856;2023-06-14T12:59:19;31.20;25.90
67529;DHT22;54366;51.980;5.856;2023-06-14T13:01:52;31.20;25.40
67529;DHT22;54366;51.980;5.856;2023-06-14T13:04:26;31.20;25.60
67529;DHT22;54366;51.980;5.856;2023-06-14T13:06:59;31.20;25.50
67529;DHT22;54366;51.980;5.856;2023-06-14T13:09:26;31.20;25.50
67529;DHT22;54366;51.980;5.856;2023-06-14T13:11:59;31.20;25.80
67529;DHT22;54366;51.980;5.856;2023-06-14T13:14:26;31.30;25.80
67529;DHT22;54366;51.980;5.856;2023-06-14T13:16:58;31.30;25.60
67529;DHT22;54366;51.980;5.856;2023-06-14T13:19:25;31.30;26.00
67529;DHT22;54366;51.980;5.856;2023-06-14T13:21:57;31.10;25.20
67529;DHT22;54366;51.980;5.856;2023-06-14T13:24:30;31.00;25.20
67529;DHT22;54366;51.980;5.856;2023-06-14T13:26:57;30.70;25.40
67529;DHT22;54366;51.980;5.856;2023-06-14T13:29:29;30.70;25.50
67529;DHT22;54366;51.980;5.856;2023-06-14T13:32:04;30.60;25.70
67529;DHT22;54366;51.980;5.856;2023-06-14T13:34:45;30.60;26.20
67529;DHT22;54366;51.980;5.856;2023-06-14T13:37:31;30.50;25.50
67529;DHT22;54366;51.980;5.856;2023-06-14T13:40:04;30.50;25.60
67529;DHT22;54366;51.980;5.856;2023-06-14T13:42:51;30.50;26.00
67529;DHT22;54366;51.980;5.856;2023-06-14T13:45:23;30.40;25.70
67529;DHT22;54366;51.980;5.856;2023-06-14T13:47:50;30.40;25.30
67529;DHT22;54366;51.980;5.856;2023-06-14T13:50:24;30.30;25.30
67529;DHT22;54366;51.980;5.856;2023-06-14T13:52:57;30.30;25.30
67529;DHT22;54366;51.980;5.856;2023-06-14T13:55:24;30.30;25.60
67529;DHT22;54366;51.980;5.856;2023-06-14T13:57:56;30.20;25.60
67529;DHT22;54366;51.980;5.856;2023-06-14T14:00:23;30.10;26.00
67529;DHT22;54366;51.980;5.856;2023-06-14T14:02:56;30.00;26.20
67529;DHT22;54366;51.980;5.856;2023-06-14T14:05:23;30.00;25.40
67529;DHT22;54366;51.980;5.856;2023-06-14T14:08:00;29.80;25.40
67529;DHT22;54366;51.980;5.856;2023-06-14T14:10:28;29.50;25.80
67529;DHT22;54366;51.980;5.856;2023-06-14T14:13:01;29.40;26.10
67529;DHT22;54366;51.980;5.856;2023-06-14T14:15:34;29.20;26.40
67529;DHT22;54366;51.980;5.856;2023-06-14T14:18:01;29.10;26.70
67529;DHT22;54366;51.980;5.856;2023-06-14T14:20:35;29.00;26.70
67529;DHT22;54366;51.980;5.856;2023-06-14T14:23:08;29.00;27.00
67529;DHT22;54366;51.980;5.856;2023-06-14T14:25:35;29.00;26.90
67529;DHT22;54366;51.980;5.856;2023-06-14T14:28:07;29.00;27.30
67529;DHT22;54366;51.980;5.856;2023-06-14T14:30:40;29.00;27.10
67529;DHT22;54366;51.980;5.856;2023-06-14T14:33:15;28.90;27.10
67529;DHT22;54366;51.980;5.856;2023-06-14T14:35:46;28.90;27.00
67529;DHT22;54366;51.980;5.856;2023-06-14T14:38:18;28.80;26.60
67529;DHT22;54366;51.980;5.856;2023-06-14T14:40:51;28.80;26.50
67529;DHT22;54366;51.980;5.856;2023-06-14T14:43:38;28.60;26.20
67529;DHT22;54366;51.980;5.856;2023-06-14T14:46:11;28.50;26.30
67529;DHT22;54366;51.980;5.856;2023-06-14T14:48:37;28.50;26.60
67529;DHT22;54366;51.980;5.856;2023-06-14T14:51:09;28.50;26.20
67529;DHT22;54366;51.980;5.856;2023-06-14T14:53:42;28.50;26.70
67529;DHT22;54366;51.980;5.856;2023-06-14T14:56:15;28.50;26.70
67529;DHT22;54366;51.980;5.856;2023-06-14T14:58:49;28.50;27.00
67529;DHT22;54366;51.980;5.856;2023-06-14T15:01:16;28.50;27.60
67529;DHT22;54366;51.980;5.856;2023-06-14T15:03:49;28.40;27.20
67529;DHT22;54366;51.980;5.856;2023-06-14T15:06:22;28.40;27.30
67529;DHT22;54366;51.980;5.856;2023-06-14T15:08:56;28.40;27.00
67529;DHT22;54366;51.980;5.856;2023-06-14T15:11:28;28.30;27.30
67529;DHT22;54366;51.980;5.856;2023-06-14T15:13:55;28.30;27.30
67529;DHT22;54366;51.980;5.856;2023-06-14T15:16:27;28.20;26.90
67529;DHT22;54366;51.980;5.856;2023-06-14T15:18:54;28.20;27.20
67529;DHT22;54366;51.980;5.856;2023-06-14T15:21:26;28.10;27.30
67529;DHT22;54366;51.980;5.856;2023-06-14T15:23:59;28.10;27.70
67529;DHT22;54366;51.980;5.856;2023-06-14T15:26:32;28.10;27.60
67529;DHT22;54366;51.980;5.856;2023-06-14T15:29:05;28.20;27.40
67529;DHT22;54366;51.980;5.856;2023-06-14T15:31:39;28.20;27.60
67529;DHT22;54366;51.980;5.856;2023-06-14T15:34:11;28.10;27.40
67529;DHT22;54366;51.980;5.856;2023-06-14T15:36:44;28.00;27.50
67529;DHT22;54366;51.980;5.856;2023-06-14T15:39:11;28.00;28.30
67529;DHT22;54366;51.980;5.856;2023-06-14T15:41:44;28.00;27.70
67529;DHT22;54366;51.980;5.856;2023-06-14T15:44:27;28.00;28.00
67529;DHT22;54366;51.980;5.856;2023-06-14T15:46:59;28.00;27.80
67529;DHT22;54366;51.980;5.856;2023-06-14T15:49:32;28.00;27.80
67529;DHT22;54366;51.980;5.856;2023-06-14T15:52:06;28.00;28.20
67529;DHT22;54366;51.980;5.856;2023-06-14T15:54:38;28.00;28.10
67529;DHT22;54366;51.980;5.856;2023-06-14T15:57:05;28.00;27.70
67529;DHT22;54366;51.980;5.856;2023-06-14T15:59:37;28.00;27.80
67529;DHT22;54366;51.980;5.856;2023-06-14T16:02:10;28.10;28.40
67529;DHT22;54366;51.980;5.856;2023-06-14T16:04:43;28.10;28.90
67529;DHT22;54366;51.980;5.856;2023-06-14T16:07:10;28.10;28.60
67529;DHT22;54366;51.980;5.856;2023-06-14T16:09:44;28.10;28.20
67529;DHT22;54366;51.980;5.856;2023-06-14T16:12:17;28.10;28.00